Date,TemperatureHighF,TemperatureAvgF,TemperatureLowF,DewpointHighF,DewpointAvgF,DewpointLowF,HumidityHigh,HumidityAvg,HumidityLow,PressureMaxIn,PressureMinIn,WindSpeedMaxMPH,WindSpeedAvgMPH,GustSpeedMaxMPH,PrecipitationSumIn
2013-1-1,19.8,5.5,-8.3,16.6,1.3,-11.8,87,82,67,30.41,30.15,11,1,11,0.00
2013-1-2,20.0,16.9,13.9,17.5,14.0,11.7,91,88,83,30.17,30.05,5,1,9,0.00
2013-1-3,21.1,14.6,8.8,18.3,10.2,5.0,90,82,69,30.36,30.17,9,2,9,0.00
2013-1-4,31.0,21.3,13.7,19.7,15.3,11.1,91,78,62,30.21,30.11,12,1,12,0.00
2013-1-5,26.7,17.2,8.4,18.2,12.6,6.0,93,82,65,30.18,29.94,7,1,7,0.00
2013-1-6,25.1,16.8,9.1,15.1,11.3,5.4,90,79,62,30.32,30.10,9,1,9,0.00
2013-1-7,38.5,28.8,14.4,27.2,22.7,11.1,94,78,63,30.13,29.97,15,2,15,0.04
2013-1-8,34.1,26.8,15.1,29.7,23.2,13.2,94,87,75,30.05,29.83,12,1,12,0.00
2013-1-9,35.1,30.2,22.4,27.7,23.5,19.2,90,77,61,30.42,29.98,18,2,18,0.00
2013-1-10,41.6,32.4,23.2,33.5,26.1,19.7,95,79,49,30.38,29.80,9,1,9,0.31
2013-1-11,40.7,36.9,34.5,40.2,36.1,33.3,98,97,95,29.80,29.41,9,1,9,0.04
2013-1-12,39.3,16.1,4.8,38.3,10.2,-1.1,97,77,68,30.17,29.42,24,4,24,0.00
2013-1-13,11.0,5.7,2.7,4.2,0.4,-2.2,85,78,72,30.37,30.15,9,1,9,0.00
2013-1-14,15.4,8.1,3.2,5.5,2.8,0.1,88,79,61,30.53,30.37,12,1,12,0.00
2013-1-15,28.1,15.1,7.8,18.5,11.0,4.7,91,84,60,30.40,29.93,14,1,14,0.00
2013-1-16,37.3,26.7,13.9,33.2,19.7,1.7,92,75,52,30.30,29.73,21,2,21,0.01
2013-1-17,21.1,13.2,5.0,11.4,4.2,-2.6,79,67,57,30.49,30.30,11,1,11,0.00
2013-1-18,42.4,30.3,17.2,32.2,24.4,11.4,90,79,64,30.40,29.80,13,1,13,0.00
2013-1-19,39.9,23.7,3.2,32.6,18.0,-4.4,96,79,58,30.31,29.73,22,3,22,0.00
2013-1-20,11.1,3.8,-1.9,2.0,-4.3,-9.9,80,68,55,30.51,30.31,14,2,14,0.00
2013-1-21,-1.9,-5.5,-10.5,-9.6,-13.4,-17.8,77,68,59,30.49,30.40,14,2,14,0.00
2013-1-22,4.9,-2.7,-11.3,-1.8,-10.4,-17.0,76,69,58,30.56,30.38,7,1,7,0.00
2013-1-23,18.7,7.5,-4.4,10.6,-1.2,-15.4,86,67,52,30.74,30.27,17,2,17,0.00
2013-1-24,13.6,2.7,-6.0,3.9,-7.3,-16.4,67,62,53,30.81,30.30,10,1,10,0.00
2013-1-25,20.0,14.1,4.4,13.3,5.7,-2.2,80,69,59,30.41,30.05,18,3,18,0.00
2013-1-26,23.7,13.2,-0.5,13.3,4.7,-5.0,86,69,54,30.46,30.22,9,1,9,0.00
2013-1-27,33.4,29.5,22.2,30.1,23.5,13.2,95,79,61,30.22,29.86,9,1,9,0.01
2013-1-28,35.6,32.1,30.1,34.1,31.0,28.9,97,95,93,29.96,29.69,7,0,7,0.18
2013-1-29,36.7,32.7,28.3,32.9,29.9,23.2,97,90,81,29.80,29.57,11,1,11,0.19
2013-1-30,28.2,18.4,9.3,23.1,12.4,3.0,82,77,72,29.84,29.69,13,3,13,0.00
2013-1-31,9.1,2.4,-7.6,2.8,-4.3,-14.8,81,73,67,30.40,29.85,10,3,17,0.00
2013-2-1,5.0,-2.5,-12.4,1.7,-9.4,-17.5,86,72,54,30.46,30.18,10,1,10,0.00
2013-2-2,14.9,7.7,1.8,6.7,1.7,-3.0,87,77,57,30.31,30.08,7,0,7,0.00
2013-2-3,16.7,11.3,4.3,9.2,5.8,-0.2,88,78,61,30.20,30.07,10,1,10,0.00
2013-2-4,20.9,12.1,5.4,10.6,4.5,-0.6,89,72,50,30.18,29.85,8,1,8,0.00
2013-2-5,31.0,22.2,7.5,25.7,17.5,4.7,92,82,65,30.17,29.75,11,1,11,0.00
2013-2-6,26.1,15.4,1.7,20.3,12.0,-1.2,91,86,77,30.20,30.03,8,0,8,0.00
2013-2-7,27.5,25.8,21.1,23.6,22.4,18.4,93,87,79,30.33,30.07,11,1,11,0.00
2013-2-8,29.9,24.1,19.0,21.8,17.1,12.8,86,75,56,30.46,30.30,12,1,12,0.00
2013-2-9,32.7,28.9,25.5,28.6,25.5,21.4,91,87,82,30.31,30.00,15,3,15,0.00
2013-2-10,33.8,31.0,28.4,32.8,29.2,25.6,96,93,88,30.00,29.32,9,1,9,0.00
2013-2-11,30.6,25.5,17.8,29.5,21.4,13.8,96,84,76,30.11,29.38,17,3,17,0.00
2013-2-12,37.2,25.0,14.8,30.3,19.9,11.2,92,81,62,30.12,29.88,12,1,12,0.10
2013-2-13,41.7,29.1,18.2,31.0,24.4,15.6,94,83,61,29.88,29.62,9,1,9,0.23
2013-2-14,32.5,27.2,15.5,31.1,20.9,6.1,95,78,45,30.25,29.63,17,1,17,0.04
2013-2-15,19.8,12.0,5.4,8.2,3.8,0.2,82,70,54,30.39,30.25,10,2,10,0.00
2013-2-16,22.0,8.6,-2.2,10.1,2.7,-5.5,88,77,56,30.36,30.22,4,0,5,0.00
2013-2-17,32.5,21.2,4.4,23.4,14.8,1.1,88,77,65,30.23,29.71,16,2,16,0.00
2013-2-18,33.9,24.3,8.3,30.5,19.1,4.0,89,80,73,29.88,29.58,16,3,16,0.00
2013-2-19,10.6,5.9,0.8,4.1,-2.1,-6.5,82,69,57,30.48,29.88,17,4,17,0.00
2013-2-20,19.7,6.5,-6.7,6.1,-1.6,-10.9,85,70,51,30.59,30.48,6,0,6,0.00
2013-2-21,23.7,14.9,3.3,12.9,6.9,-0.8,86,71,56,30.56,30.18,9,1,9,0.00
2013-2-22,29.9,23.7,19.7,24.0,20.0,12.5,93,86,70,30.18,29.93,8,1,8,0.01
2013-2-23,32.2,23.3,17.3,23.8,19.2,14.5,92,85,69,30.04,29.92,10,1,10,0.01
2013-2-24,37.4,21.6,5.4,24.2,15.7,2.9,93,79,56,30.18,30.04,6,0,6,0.05
2013-2-25,39.7,29.0,17.8,27.1,22.9,15.8,92,79,57,30.18,30.09,4,0,4,0.04
2013-2-26,36.9,27.7,13.4,28.4,22.9,11.5,94,83,69,30.12,29.94,10,1,10,0.00
2013-2-27,39.2,32.5,28.6,28.3,25.6,23.2,84,76,60,30.08,29.93,16,2,16,0.00
2013-2-28,30.6,28.9,24.2,23.5,21.4,17.0,79,73,69,30.29,30.08,10,2,11,0.00
2013-3-1,31.7,25.4,17.8,20.0,16.8,11.8,78,70,58,30.43,30.29,10,1,10,0.00
2013-3-2,32.7,20.5,6.4,16.0,9.6,3.8,92,65,36,30.44,30.26,7,0,7,0.00
2013-3-3,34.0,24.7,12.5,14.8,11.6,6.4,82,58,40,30.26,30.06,12,1,12,0.00
2013-3-4,28.0,25.3,22.7,22.4,18.5,12.4,92,76,54,30.11,30.02,10,1,10,0.00
2013-3-5,30.6,26.2,22.1,26.2,23.1,18.3,94,88,77,30.38,30.05,0,0,0,0.03
2013-3-6,33.7,23.4,11.1,22.3,17.6,8.4,91,79,61,30.50,30.37,0,0,0,0.11
2013-3-7,34.1,20.5,4.8,21.1,13.8,2.0,92,76,57,30.48,30.37,11,1,11,0.01
2013-3-8,40.4,28.5,13.2,30.6,22.9,10.8,92,80,66,30.41,30.15,10,1,10,0.15
2013-3-9,37.1,35.2,32.8,35.8,33.5,28.5,96,93,80,30.16,29.75,10,1,10,0.62
2013-3-10,35.6,33.6,30.5,34.1,30.1,25.8,96,87,82,30.00,29.82,15,3,16,0.02
2013-3-11,31.0,28.3,22.4,26.0,23.2,17.9,85,81,73,29.92,29.81,12,2,12,0.00
2013-3-12,30.4,25.4,20.6,20.5,17.1,12.0,84,71,53,30.26,29.90,14,3,14,0.00
2013-3-13,34.5,23.9,11.8,18.9,14.9,8.7,89,69,48,30.47,30.26,10,1,10,0.00
2013-3-14,43.7,31.6,23.7,30.2,24.5,18.4,90,76,56,30.34,30.08,8,1,8,0.02
2013-3-15,34.4,31.2,25.3,32.8,28.6,23.3,94,90,85,30.08,29.88,9,1,9,0.11
2013-3-16,29.2,23.5,14.5,23.3,14.7,5.8,92,69,53,30.32,29.95,9,2,9,0.00
2013-3-17,29.1,19.3,7.6,20.1,8.6,0.4,75,63,52,30.36,29.97,12,2,12,0.00
2013-3-18,29.2,22.6,12.2,27.4,17.3,6.0,93,80,69,29.97,29.67,18,4,18,0.00
2013-3-19,25.3,14.8,7.4,10.2,4.5,-1.3,78,64,48,30.30,29.89,16,4,16,0.00
2013-3-20,23.9,13.7,4.8,7.7,2.3,-2.5,71,60,48,30.32,30.21,14,3,14,0.00
2013-3-21,31.6,17.2,0.4,13.4,6.5,-3.7,87,64,43,30.24,30.13,8,0,8,0.02
2013-3-22,40.1,23.7,5.9,17.8,12.3,2.6,90,64,37,30.19,30.11,6,0,7,0.00
2013-3-23,42.2,29.0,14.8,21.7,17.6,11.2,90,64,38,30.23,30.15,7,0,7,0.00
2013-3-24,33.6,29.9,24.8,25.5,22.7,18.6,82,74,62,30.18,30.04,15,1,15,0.00
2013-3-25,39.4,31.6,22.8,22.6,20.1,16.3,76,63,47,30.28,30.10,11,2,15,0.00
2013-3-26,38.4,31.1,25.8,24.4,21.2,19.3,82,68,49,30.37,30.28,7,0,7,0.00
2013-3-27,45.1,32.3,19.6,27.7,20.5,17.7,94,66,37,30.41,30.36,8,0,8,0.00
2013-3-28,44.9,32.9,19.7,28.3,22.8,16.9,93,69,42,30.41,30.34,7,1,7,0.00
2013-3-29,50.2,38.0,27.1,36.5,30.4,22.9,86,75,54,30.35,30.12,10,1,10,0.00
2013-3-30,56.2,44.2,33.7,44.7,38.2,30.9,93,80,60,30.12,29.88,10,1,10,0.18
2013-3-31,40.8,34.4,24.3,33.1,25.3,14.9,93,71,40,30.15,29.84,8,3,18,0.00
2013-4-1,36.7,26.8,17.9,18.1,15.0,11.6,77,62,41,30.33,30.15,17,3,17,0.00
2013-4-2,39.5,28.6,18.1,19.8,16.1,12.6,87,62,35,30.43,30.33,10,1,10,0.00
2013-4-3,47.6,31.9,17.4,31.9,21.4,13.1,91,67,43,30.48,30.13,13,2,13,0.00
2013-4-4,53.6,44.4,33.9,36.4,29.4,22.8,79,56,37,30.21,30.05,20,3,20,0.00
2013-4-5,44.7,34.8,27.7,32.9,25.1,17.2,93,70,42,30.29,29.95,11,1,13,0.08
2013-4-6,55.2,42.4,35.3,45.2,35.8,29.6,92,78,59,29.95,29.53,12,2,13,0.12
2013-4-7,49.4,41.4,34.0,38.9,35.0,30.3,91,78,62,29.99,29.78,8,1,9,0.10
2013-4-8,47.6,42.7,39.3,42.8,40.1,37.3,96,91,81,30.08,29.72,5,1,10,0.48
2013-4-9,43.1,38.4,31.8,36.9,33.4,28.7,94,83,65,30.22,30.00,15,3,18,0.52
2013-4-10,37.9,34.4,29.7,29.8,27.7,24.4,95,77,62,30.25,29.95,14,1,17,0.21
2013-4-11,36.2,33.1,30.7,33.2,30.7,26.7,96,91,70,29.97,29.73,13,1,13,0.49
2013-4-12,37.1,32.1,27.8,31.0,28.6,26.5,96,87,70,29.90,29.73,7,1,7,0.16
2013-4-13,38.0,32.9,28.8,28.7,26.9,24.5,93,79,65,30.02,29.89,8,1,10,0.12
2013-4-14,36.1,32.4,29.7,35.1,29.1,24.7,96,88,73,30.01,29.53,11,1,11,0.15
2013-4-15,40.9,36.1,32.1,34.7,29.9,26.3,96,78,67,30.03,29.59,21,3,21,0.17
2013-4-16,48.8,38.9,32.9,33.0,28.9,26.3,86,68,46,30.37,30.02,11,1,11,0.00
2013-4-17,41.7,37.3,34.5,35.3,31.3,27.2,95,79,71,30.37,29.94,14,1,14,0.29
2013-4-18,34.7,32.6,31.1,33.3,31.3,30.1,97,95,90,29.98,29.55,16,2,16,0.12
2013-4-19,38.9,32.9,29.2,30.2,27.0,19.9,97,80,56,30.05,29.54,16,2,16,0.29
2013-4-20,44.7,32.7,16.3,20.6,16.3,11.3,88,54,28,30.37,30.05,7,1,7,0.41
2013-4-21,50.9,40.9,31.8,46.4,36.4,20.2,94,84,62,30.37,30.06,17,2,17,0.15
2013-4-22,44.4,37.0,32.0,37.9,33.4,31.0,96,87,65,30.26,30.15,12,1,12,0.23
2013-4-23,44.0,36.1,28.6,33.1,27.9,20.4,96,74,46,30.22,30.11,12,1,12,0.81
2013-4-24,52.6,38.0,25.8,35.0,29.0,21.7,92,73,39,30.13,29.95,19,2,19,0.01
2013-4-25,53.2,42.3,32.6,33.4,30.5,26.3,89,65,37,30.26,30.03,11,2,11,0.00
2013-4-26,74.1,58.5,44.0,47.7,40.0,31.0,77,53,29,30.15,30.01,18,2,18,0.01
2013-4-27,76.6,60.2,38.4,48.9,40.7,33.6,89,53,27,30.15,29.91,15,1,15,0.00
2013-4-28,82.0,65.1,52.4,54.3,48.8,45.3,90,58,31,29.91,29.62,15,3,15,0.10
2013-4-29,76.2,62.6,49.3,58.0,48.8,36.2,96,64,36,29.82,29.55,9,1,9,0.00
2013-4-30,71.4,65.4,57.8,59.8,47.4,28.4,84,55,23,29.97,29.41,10,2,14,0.00
2013-5-1,57.8,41.3,34.8,40.5,35.6,30.3,93,82,45,30.53,29.97,13,1,13,0.49
2013-5-2,47.2,40.1,34.4,33.1,29.8,26.4,93,68,46,30.60,30.47,12,2,12,0.03
2013-5-3,38.6,34.5,31.8,33.4,29.8,25.6,93,83,62,30.47,30.21,15,2,15,0.28
2013-5-4,50.6,40.4,33.3,43.6,36.8,30.8,95,87,74,30.22,30.17,9,2,9,0.10
2013-5-5,67.1,50.9,38.9,50.0,42.3,35.8,90,74,51,30.23,30.10,7,1,7,0.00
2013-5-6,77.2,60.5,41.1,52.9,46.4,39.5,97,64,35,30.14,30.02,6,0,6,0.00
2013-5-7,81.5,65.8,48.1,55.0,47.9,42.4,93,57,27,30.07,29.95,10,1,10,0.00
2013-5-8,79.3,65.6,54.5,57.6,52.2,47.2,90,65,34,30.00,29.92,12,0,12,0.06
2013-5-9,59.2,53.8,43.9,55.8,48.5,30.3,91,83,55,30.12,29.95,16,2,16,0.18
2013-5-10,69.4,52.6,37.1,45.1,30.0,21.8,77,46,17,30.15,29.90,10,1,10,0.02
2013-5-11,55.4,48.1,41.5,45.5,28.3,19.5,78,48,28,30.21,29.89,19,4,19,0.00
2013-5-12,60.4,47.3,34.2,26.1,22.7,16.6,66,41,20,30.27,30.12,16,2,16,0.00
2013-5-13,72.0,55.2,33.5,48.6,35.7,23.7,78,50,28,30.15,29.66,21,2,21,0.00
2013-5-14,100.0,74.8,49.6,59.0,48.1,33.8,90,45,16,29.69,29.42,17,2,17,0.00
2013-5-15,81.0,67.9,54.1,50.1,47.2,44.0,72,49,29,29.91,29.65,12,2,12,0.00
2013-5-16,84.7,70.3,51.5,52.6,46.0,34.9,78,45,25,29.92,29.82,12,1,12,0.00
2013-5-17,67.6,58.3,55.4,55.3,51.7,35.8,95,80,31,30.00,29.88,13,1,13,0.37
2013-5-18,81.3,64.9,54.9,68.3,59.9,53.6,98,85,57,30.03,29.78,15,1,15,2.33
2013-5-19,81.6,68.4,63.0,68.3,64.0,61.0,97,87,60,29.80,29.54,13,1,17,1.65
2013-5-20,72.2,65.5,58.4,64.2,60.8,56.4,98,86,63,29.59,29.48,16,2,16,0.61
2013-5-21,64.5,57.9,50.0,61.5,56.1,48.6,97,94,85,29.71,29.51,7,0,7,0.11
2013-5-22,53.8,49.7,46.1,50.9,47.8,45.0,97,93,73,30.01,29.70,14,2,14,0.29
2013-5-23,65.3,54.1,44.5,45.6,37.6,31.2,87,57,32,30.37,30.01,13,2,13,0.00
2013-5-24,69.7,54.9,37.2,53.0,41.0,30.7,91,62,36,30.43,30.19,13,1,13,0.18
2013-5-25,61.4,56.2,52.0,51.3,49.0,44.8,94,78,62,30.28,30.24,15,2,15,0.01
2013-5-26,58.7,55.4,51.4,49.9,44.8,37.9,75,68,51,30.25,30.06,17,2,17,0.00
2013-5-27,61.1,56.9,53.9,55.6,52.2,48.8,94,84,71,30.07,29.85,8,1,11,0.05
2013-5-28,61.2,56.5,53.0,57.8,54.5,51.4,97,93,87,29.85,29.73,8,0,8,0.12
2013-5-29,75.7,64.9,53.7,71.2,62.0,52.6,97,90,77,29.84,29.64,10,1,10,0.69
2013-5-30,77.5,69.1,63.4,67.6,63.9,62.1,98,84,62,29.67,29.50,20,2,20,0.27
2013-5-31,78.3,68.0,60.2,62.2,58.8,52.6,97,75,42,29.55,29.49,19,2,19,0.28
2013-6-1,74.2,61.4,52.4,63.2,54.2,44.5,93,78,54,29.95,29.54,11,1,11,0.27
2013-6-2,70.5,57.7,49.3,47.7,42.8,39.8,77,59,36,30.10,29.94,11,1,11,0.00
2013-6-3,73.7,60.0,44.9,50.1,46.2,41.5,94,64,36,30.09,29.94,8,0,8,0.00
2013-6-4,63.5,59.2,55.4,54.6,51.3,48.0,90,75,67,30.09,30.00,11,1,12,0.02
2013-6-5,60.2,56.3,54.5,58.0,54.4,50.4,96,93,83,30.07,29.96,8,0,8,0.18
2013-6-6,57.2,53.9,50.6,54.0,51.6,49.5,96,92,84,30.05,29.98,7,1,7,0.00
2013-6-7,69.8,59.4,53.4,55.8,53.0,51.5,94,80,56,30.08,29.93,5,0,5,0.00
2013-6-8,73.7,63.3,52.1,57.9,54.7,50.3,95,75,51,29.94,29.89,12,1,12,0.00
2013-6-9,70.0,60.4,56.4,64.3,57.9,55.0,96,92,80,29.91,29.77,14,1,14,0.61
2013-6-10,80.2,66.4,56.7,66.1,61.2,55.9,98,85,56,29.86,29.80,7,0,7,0.00
2013-6-11,79.1,67.5,56.3,69.3,63.3,55.2,98,87,68,29.90,29.78,5,0,5,0.00
2013-6-12,75.5,67.4,62.2,68.8,63.2,53.5,99,87,61,29.91,29.75,12,1,12,0.97
2013-6-13,79.5,68.8,57.3,60.6,55.1,50.6,84,63,43,30.09,29.91,12,1,12,0.00
2013-6-14,80.8,69.2,55.6,63.4,58.7,51.4,90,70,53,30.08,29.86,13,1,13,0.01
2013-6-15,79.3,70.2,61.5,69.9,64.8,59.6,96,84,60,29.90,29.82,13,0,13,0.09
2013-6-16,89.0,71.4,56.5,62.3,56.9,48.5,98,67,26,29.92,29.82,12,1,12,0.02
2013-6-17,84.5,71.5,58.7,62.3,57.7,54.3,91,64,39,30.00,29.85,12,1,12,0.00
2013-6-18,79.4,67.2,56.5,62.8,56.7,50.7,85,70,50,30.08,30.00,10,1,10,0.00
2013-6-19,87.4,72.5,57.6,65.8,59.9,55.3,93,67,37,30.06,29.92,9,1,9,0.00
2013-6-20,90.7,80.4,68.9,70.7,64.7,60.3,79,60,42,29.99,29.84,12,2,12,0.00
2013-6-21,82.7,72.2,63.1,71.8,66.5,60.8,98,84,60,30.04,29.71,18,1,18,2.03
2013-6-22,82.8,72.2,64.9,73.0,68.0,64.0,98,88,68,30.00,29.81,12,0,12,0.47
2013-6-23,85.6,75.1,68.4,71.3,68.3,64.5,96,81,54,29.87,29.68,19,2,19,0.29
2013-6-24,84.7,72.4,63.3,72.5,67.4,62.2,98,85,64,29.90,29.78,10,0,10,0.03
2013-6-25,87.0,75.6,63.9,75.5,69.2,62.4,96,82,64,29.82,29.68,11,1,11,0.00
2013-6-26,91.1,79.7,70.7,77.7,71.5,64.6,98,78,50,29.79,29.63,10,1,10,0.00
2013-6-27,89.0,78.7,68.1,69.0,62.6,55.2,91,61,34,29.79,29.75,15,1,15,0.00
2013-6-28,80.0,71.6,66.0,67.8,61.6,57.1,91,71,57,29.79,29.72,11,1,11,0.10
2013-6-29,77.7,68.9,62.1,63.2,58.7,49.2,96,73,39,29.97,29.73,7,1,15,0.45
2013-6-30,82.3,68.9,53.5,58.8,53.5,48.1,94,61,35,30.11,29.97,7,1,11,0.00
2013-7-1,85.3,72.6,57.0,63.6,57.8,53.7,96,63,37,30.18,30.10,9,0,9,0.00
2013-7-2,84.9,71.8,56.7,61.3,55.9,50.4,82,59,37,30.15,30.03,4,0,9,0.00
2013-7-3,86.3,71.3,56.5,64.2,57.6,50.7,97,67,30,30.07,29.93,7,0,7,0.00
2013-7-4,89.5,77.3,63.1,66.4,59.4,56.3,83,57,34,29.95,29.83,16,2,16,0.00
2013-7-5,88.6,79.3,70.1,67.2,62.6,58.8,71,57,43,29.88,29.77,15,2,15,0.00
2013-7-6,91.6,81.6,74.0,71.6,65.7,61.6,68,59,46,29.86,29.77,9,2,10,0.00
2013-7-7,92.2,82.2,74.2,74.3,69.1,65.4,83,65,51,29.85,29.77,7,1,9,0.00
2013-7-8,91.3,77.6,67.2,73.4,69.0,64.9,94,76,48,29.97,29.84,6,0,6,0.00
2013-7-9,87.0,77.7,69.9,74.6,70.2,65.4,96,79,62,29.93,29.73,13,1,13,0.37
2013-7-10,83.0,72.7,61.6,65.8,58.4,54.3,84,63,41,30.03,29.88,8,1,8,0.00
2013-7-11,86.8,73.5,58.7,66.2,59.9,56.4,97,66,36,30.11,29.96,9,1,9,0.02
2013-7-12,88.8,78.2,66.6,67.6,61.8,58.1,80,58,43,30.00,29.88,13,3,14,0.00
2013-7-13,80.8,73.0,64.1,71.6,65.0,59.4,98,77,57,30.06,29.90,18,2,18,3.84
2013-7-14,87.5,76.4,68.7,70.2,66.2,61.8,87,72,51,30.16,30.05,13,1,13,0.00
2013-7-15,89.5,78.7,65.5,72.4,68.1,63.7,96,72,49,30.22,30.13,9,1,9,0.00
2013-7-16,94.0,83.9,74.4,76.2,72.2,70.3,91,70,48,30.18,30.13,11,1,11,0.00
2013-7-17,92.5,80.1,72.4,73.4,72.0,69.9,93,77,52,30.22,30.07,2,0,6,0.00
2013-7-18,94.5,85.9,76.7,76.1,72.1,70.2,82,65,47,30.07,29.73,17,2,17,0.00
2013-7-19,87.2,80.8,71.8,71.9,66.5,59.8,85,63,44,29.86,29.68,14,1,14,0.03
2013-7-20,83.5,72.8,63.0,67.9,62.3,57.5,91,71,52,29.94,29.84,7,0,7,0.00
2013-7-21,83.2,70.1,58.0,70.8,62.3,51.2,96,77,60,29.95,29.78,6,1,10,0.98
2013-7-22,89.7,75.6,65.5,74.5,66.1,56.8,95,74,51,29.83,29.65,10,1,10,0.00
2013-7-23,77.3,68.4,60.0,60.5,55.8,52.7,86,65,46,29.99,29.83,9,1,9,0.00
2013-7-24,81.0,67.5,56.5,63.2,57.7,52.3,90,72,50,30.08,29.96,6,0,6,0.00
2013-7-25,84.3,73.2,61.3,70.4,63.1,58.8,93,72,49,29.98,29.88,9,1,9,0.02
2013-7-26,71.5,65.2,57.6,65.3,56.9,47.2,92,75,59,30.08,29.88,11,1,11,0.04
2013-7-27,65.3,57.6,52.9,53.7,49.2,45.8,84,74,56,30.08,29.94,11,1,11,0.02
2013-7-28,75.2,62.0,51.8,58.4,51.5,46.4,89,70,49,30.07,29.97,8,0,8,0.00
2013-7-29,78.9,65.6,51.1,60.6,55.6,49.7,97,73,46,30.14,30.07,4,1,7,0.00
2013-7-30,73.3,67.4,63.1,66.2,62.4,58.0,94,84,73,30.10,30.04,4,0,5,0.02
2013-7-31,83.3,69.6,60.5,70.0,61.1,53.0,98,77,44,30.07,29.97,9,0,9,0.01
2013-8-1,83.9,69.9,52.9,61.5,56.6,51.0,95,66,38,30.04,29.85,7,0,8,0.00
2013-8-2,80.0,68.3,56.8,61.5,55.8,50.9,95,67,40,30.03,29.83,6,0,6,0.00
2013-8-3,81.8,66.3,51.5,61.2,52.9,49.6,97,66,36,30.19,30.03,8,0,8,0.00
2013-8-4,75.3,63.5,50.6,60.8,55.2,48.7,96,76,51,30.24,30.01,7,0,7,0.00
2013-8-5,82.3,68.8,60.6,70.2,63.7,56.5,97,85,63,30.03,29.77,7,0,10,0.73
2013-8-6,86.0,70.6,56.7,70.1,62.8,55.5,97,79,54,29.84,29.66,14,1,14,0.35
2013-8-7,78.8,69.9,57.1,64.3,55.0,49.7,99,63,38,30.03,29.91,12,0,12,0.00
2013-8-8,77.3,62.3,53.9,61.4,56.6,53.0,98,84,54,30.05,29.99,10,0,10,0.00
2013-8-9,67.2,66.4,65.4,54.3,53.1,52.4,67,62,60,30.12,30.10,1,0,1,0.00
2013-8-10,80.2,68.8,58.7,58.9,55.1,50.4,90,64,40,30.18,30.08,8,0,8,0.00
2013-8-11,81.5,69.7,63.1,68.4,62.9,58.9,92,80,58,30.09,29.98,5,0,5,0.00
2013-8-12,82.3,71.1,59.6,64.5,58.8,53.6,97,69,41,30.06,29.98,12,0,12,0.00
2013-8-13,76.2,65.2,54.3,57.0,51.1,43.8,95,64,35,30.19,30.06,9,0,9,0.00
2013-8-14,80.1,65.5,53.0,59.6,53.8,50.5,97,70,40,30.20,30.10,10,0,10,0.00
2013-8-15,81.7,67.5,52.4,63.6,56.0,49.6,92,69,43,30.14,30.07,7,0,8,0.00
2013-8-16,82.7,69.7,55.9,63.3,57.3,54.0,95,68,40,30.19,30.13,9,0,9,0.00
2013-8-17,83.1,69.3,55.3,63.5,57.1,54.3,98,69,39,30.20,30.09,11,1,11,0.00
2013-8-18,84.5,72.2,57.7,62.2,59.0,54.7,94,65,43,30.14,29.99,13,1,13,0.00
2013-8-19,88.2,75.6,66.6,70.8,65.1,59.0,82,71,53,30.02,29.87,11,1,11,0.00
2013-8-20,90.5,79.8,69.2,74.8,70.3,65.4,88,74,58,29.90,29.82,11,1,11,0.00
2013-8-21,88.5,79.0,72.9,79.5,73.1,67.6,95,83,66,29.97,29.81,10,1,10,0.13
2013-8-22,86.8,76.2,65.5,67.7,57.7,52.3,78,54,33,30.11,29.95,7,0,7,0.00
2013-8-23,87.1,73.0,57.9,68.6,61.4,51.7,85,68,49,30.14,30.01,10,1,10,0.00
2013-8-24,89.4,79.0,68.9,75.1,69.7,64.4,87,74,58,30.06,29.91,15,2,15,0.00
2013-8-25,95.3,85.7,77.8,76.9,73.8,70.7,80,68,54,29.98,29.89,15,2,15,0.00
2013-8-26,96.0,86.1,76.8,78.2,75.3,73.0,89,71,55,29.95,29.80,11,1,11,0.00
2013-8-27,96.5,84.7,76.2,80.2,75.1,71.7,87,74,55,29.88,29.75,9,0,9,0.00
2013-8-28,92.7,79.6,70.2,76.2,71.8,66.0,97,79,44,29.98,29.87,4,0,6,0.00
2013-8-29,94.3,83.1,74.9,78.6,73.2,69.0,93,74,45,29.98,29.81,12,1,12,0.00
2013-8-30,85.0,77.4,68.9,72.4,68.1,63.4,89,74,57,29.90,29.78,12,0,12,0.00
2013-8-31,89.3,74.6,62.7,71.3,66.2,61.5,96,77,51,29.87,29.68,5,0,7,0.09
2013-9-1,74.8,69.5,62.2,66.1,61.1,54.0,91,75,62,29.97,29.71,8,0,8,0.00
2013-9-2,70.4,60.0,52.3,56.6,52.6,49.8,95,77,58,30.10,29.96,6,0,6,0.00
2013-9-3,79.0,62.2,47.7,60.6,54.7,46.6,98,79,47,30.12,30.00,6,0,6,0.00
2013-9-4,88.0,71.3,56.7,70.1,62.3,55.6,97,76,46,30.15,30.01,6,0,6,0.00
2013-9-5,84.2,71.1,59.7,69.0,61.9,54.4,86,74,57,30.21,30.09,7,0,7,0.00
2013-9-6,91.5,78.9,68.3,70.4,67.2,63.7,95,70,43,30.09,29.84,12,1,12,0.01
2013-9-7,92.7,80.3,68.1,73.9,68.3,63.5,92,68,45,29.98,29.83,10,0,10,0.00
2013-9-8,76.7,70.4,65.3,66.2,62.9,58.3,86,77,65,30.03,29.87,12,0,12,0.00
2013-9-9,93.8,78.7,68.6,75.5,70.0,65.0,95,77,50,29.88,29.60,10,1,10,0.01
2013-9-10,81.8,74.5,67.2,72.6,66.3,61.0,94,76,57,29.97,29.72,7,0,7,0.00
2013-9-11,86.7,73.4,62.1,66.0,59.1,50.6,96,65,32,30.04,29.97,11,0,11,0.00
2013-9-12,75.2,65.6,54.7,57.4,50.5,45.3,89,60,38,30.23,30.04,9,0,9,0.00
2013-9-13,71.7,58.3,44.5,50.0,46.7,42.6,97,68,41,30.29,30.10,5,0,5,0.00
2013-9-14,74.6,59.7,46.9,57.0,49.8,43.6,96,72,42,30.11,29.90,10,1,10,0.51
2013-9-15,66.3,58.6,48.3,59.2,54.4,44.7,97,86,68,30.34,29.89,12,0,12,0.47
2013-9-16,68.7,53.7,40.4,49.8,44.8,39.1,97,74,43,30.44,30.28,7,0,7,0.00
2013-9-17,67.6,56.4,46.0,57.9,50.8,43.0,96,82,64,30.28,29.96,14,1,14,0.04
2013-9-18,74.8,67.3,59.0,70.0,65.1,57.9,98,93,82,29.96,29.68,14,1,14,0.04
2013-9-19,77.8,70.3,63.8,72.1,66.9,60.0,98,89,73,29.79,29.64,12,0,12,0.31
2013-9-20,65.5,58.8,50.2,59.3,53.6,48.3,94,84,62,29.94,29.77,7,0,7,0.10
2013-9-21,67.8,54.4,45.8,53.3,48.1,44.7,96,81,54,30.01,29.93,1,0,5,0.01
2013-9-22,74.7,58.5,44.7,59.6,51.5,43.9,97,80,55,30.00,29.86,13,1,13,0.00
2013-9-23,74.3,62.2,51.6,56.6,52.7,48.3,90,72,51,29.97,29.87,14,1,14,0.00
2013-9-24,77.7,61.4,48.7,60.6,53.2,47.3,96,77,49,29.99,29.91,8,0,8,0.00
2013-9-25,75.5,61.4,49.3,58.4,53.3,48.2,98,77,49,29.99,29.87,9,1,9,0.00
2013-9-26,81.9,67.4,54.5,63.7,57.5,51.0,90,72,50,29.94,29.83,10,2,15,0.00
2013-9-27,84.5,73.2,64.8,66.2,62.2,59.8,84,70,49,29.92,29.78,12,2,16,0.00
2013-9-28,72.0,61.2,48.0,64.1,55.3,45.3,94,82,67,29.95,29.63,8,1,15,0.17
2013-9-29,76.7,60.6,44.7,53.1,46.6,42.1,94,64,34,29.99,29.81,12,1,12,0.00
2013-9-30,80.2,68.2,58.3,55.2,51.6,47.6,72,56,41,29.81,29.59,10,2,19,0.00
2013-10-1,77.5,67.1,49.6,54.2,46.8,36.3,74,51,25,29.99,29.58,13,1,13,0.00
2013-10-2,76.2,59.0,42.7,55.8,45.6,38.8,96,67,30,30.06,29.84,11,1,11,0.51
2013-10-3,60.9,58.3,56.5,58.2,56.7,55.0,97,94,89,29.93,29.80,9,0,9,0.18
2013-10-4,58.4,56.7,54.9,56.7,55.1,53.8,97,94,89,30.00,29.85,10,0,10,0.22
2013-10-5,62.1,55.0,42.0,59.4,51.8,40.9,98,90,67,29.90,29.73,11,0,11,0.11
2013-10-6,56.2,46.5,39.1,53.2,45.1,38.3,99,95,83,29.88,29.71,5,0,5,0.09
2013-10-7,69.2,52.3,40.5,53.9,44.7,39.9,99,79,41,30.01,29.87,7,0,7,0.01
2013-10-8,77.3,62.9,47.0,51.3,47.0,42.8,87,58,36,30.00,29.84,15,2,15,0.00
2013-10-9,76.3,65.3,52.0,55.9,51.2,48.3,89,61,43,30.04,29.94,14,2,14,0.00
2013-10-10,77.9,61.0,46.8,56.8,50.4,45.3,95,71,42,30.05,29.89,13,1,13,0.00
2013-10-11,74.9,64.4,52.5,61.7,55.1,49.7,92,73,52,29.90,29.63,21,2,21,0.12
2013-10-12,59.1,49.7,41.0,56.5,42.7,38.6,93,77,64,30.20,29.71,6,1,15,0.00
2013-10-13,63.0,47.4,34.9,45.5,38.4,33.3,97,75,39,30.48,30.20,5,0,5,0.01
2013-10-14,54.3,47.1,38.2,47.7,41.6,36.6,96,82,64,30.45,30.00,12,0,12,0.40
2013-10-15,53.7,49.6,46.7,52.9,48.4,45.6,97,96,94,30.02,29.70,7,1,11,0.82
2013-10-16,56.4,45.6,34.9,45.5,41.2,33.6,96,85,57,30.00,29.84,8,0,8,0.01
2013-10-17,60.9,46.7,34.4,46.3,40.7,33.1,97,81,51,29.92,29.80,7,0,7,0.09
2013-10-18,55.2,44.3,37.8,41.9,36.8,32.0,95,77,45,30.01,29.88,10,0,10,0.04
2013-10-19,49.1,39.7,32.5,42.4,36.2,31.0,94,87,72,29.89,29.72,7,1,7,0.03
2013-10-20,47.3,37.3,29.4,41.9,34.6,28.1,96,90,74,29.93,29.65,8,0,8,0.02
2013-10-21,39.3,34.6,26.7,34.1,25.8,23.5,89,71,58,30.02,29.92,12,1,12,0.00
2013-10-22,40.7,32.7,22.5,33.7,28.2,21.0,96,84,67,30.09,30.01,5,0,5,0.00
2013-10-23,40.4,34.8,31.1,32.6,27.1,21.6,93,74,57,30.17,30.06,9,1,9,0.00
2013-10-24,45.4,37.8,32.7,32.7,28.2,22.5,81,68,56,30.37,30.16,9,1,9,0.00
2013-10-25,58.1,43.8,26.7,42.5,34.6,24.6,93,72,53,30.38,29.82,17,2,17,0.00
2013-10-26,50.3,43.5,36.0,42.3,32.0,29.1,77,64,52,30.14,29.82,13,2,13,0.00
2013-10-27,59.7,43.4,29.4,37.7,31.7,26.0,88,66,42,30.18,29.86,13,1,13,0.00
2013-10-28,44.6,37.4,31.7,31.3,25.8,21.2,83,64,44,30.48,30.18,13,1,13,0.00
2013-10-29,42.2,37.5,29.7,37.1,30.0,21.2,92,74,67,30.46,30.14,5,0,5,0.02
2013-10-30,49.4,44.7,39.2,48.9,43.7,37.1,98,96,92,30.14,29.70,7,0,7,0.13
2013-10-31,49.6,43.4,40.2,49.1,41.9,38.1,98,94,88,29.70,29.44,5,1,9,0.02
2013-11-1,53.2,43.6,36.0,40.4,37.5,31.4,94,80,58,29.90,29.45,9,1,9,0.00
2013-11-2,51.8,39.8,31.6,36.8,32.2,29.1,94,76,47,30.15,29.90,7,0,7,0.00
2013-11-3,54.8,44.0,32.3,38.0,33.7,28.7,94,69,46,30.16,29.92,23,3,23,0.00
2013-11-4,48.3,43.9,32.7,45.9,38.0,31.7,97,81,62,30.20,29.87,9,2,23,0.17
2013-11-5,44.6,34.9,26.1,38.8,30.9,25.1,98,87,57,30.30,30.07,12,0,12,0.04
2013-11-6,41.9,34.4,29.7,31.9,28.5,24.8,96,80,56,30.23,30.07,11,1,11,0.21
2013-11-7,37.4,30.0,23.6,31.6,27.2,22.0,95,89,77,30.31,30.22,9,1,9,0.01
2013-11-8,45.5,35.2,21.3,40.9,29.2,20.0,96,80,57,30.27,29.65,16,2,16,0.00
2013-11-9,45.4,41.3,35.7,40.9,33.7,26.8,86,75,60,30.25,29.67,20,3,20,0.00
2013-11-10,43.2,38.1,30.6,32.4,30.1,26.1,84,73,61,30.38,30.13,13,1,13,0.00
2013-11-11,39.1,25.6,15.6,32.2,14.9,8.5,82,64,49,30.81,30.16,13,2,13,0.00
2013-11-12,29.5,19.9,11.7,14.8,10.6,7.1,82,68,45,30.88,30.54,11,1,11,0.00
2013-11-13,50.6,37.4,22.0,35.7,25.5,13.9,74,62,50,30.54,29.93,18,2,18,0.00
2013-11-14,52.3,39.7,30.5,39.4,33.5,28.7,94,79,61,29.93,29.80,9,1,9,0.00
2013-11-15,56.3,41.5,26.7,41.9,35.1,25.6,97,80,53,29.90,29.69,11,1,11,0.00
2013-11-16,48.4,44.4,40.4,47.8,41.9,35.3,98,91,74,29.69,29.26,13,1,13,0.20
2013-11-17,44.7,39.7,32.2,41.7,35.6,25.4,96,85,76,29.87,29.34,17,2,17,0.00
2013-11-18,36.4,29.8,21.4,26.0,22.2,18.6,90,74,57,30.33,29.87,18,2,18,0.00
2013-11-19,46.4,34.5,19.2,32.1,26.4,17.5,94,74,54,30.34,29.98,19,2,19,0.00
2013-11-20,43.7,40.8,37.2,35.4,31.5,27.2,92,71,54,30.08,29.94,14,2,14,0.00
2013-11-21,37.9,31.6,24.7,36.6,28.4,17.3,95,88,73,30.57,30.08,10,1,10,0.00
2013-11-22,33.2,23.3,13.0,17.7,12.9,4.3,86,65,38,30.71,30.53,12,2,12,0.00
2013-11-23,19.2,11.9,6.6,6.5,2.7,-1.3,82,67,44,30.94,30.71,10,1,10,0.00
2013-11-24,31.2,19.6,5.4,17.5,10.0,1.7,87,67,50,30.82,30.08,18,3,18,0.00
2013-11-25,39.4,33.6,27.8,29.7,24.3,17.2,81,69,60,30.14,29.98,18,3,18,0.00
2013-11-26,30.6,21.3,13.5,21.6,9.0,3.4,73,59,46,30.47,30.13,18,3,18,0.00
2013-11-27,24.0,17.8,6.6,12.3,8.7,3.1,88,68,55,30.48,30.16,10,1,10,0.00
2013-11-28,28.7,22.0,10.4,16.1,12.7,7.3,88,67,52,30.60,30.16,11,1,11,0.00
2013-11-29,33.0,22.8,8.4,22.9,16.0,6.0,92,76,57,30.61,30.22,12,1,12,0.00
2013-11-30,43.0,31.2,21.7,29.9,24.7,19.6,94,77,58,30.23,30.09,2,0,6,0.00
2013-12-1,34.9,27.0,17.3,26.9,22.7,15.6,95,84,70,30.25,29.99,2,0,3,0.00
2013-12-2,37.3,32.3,26.0,33.5,29.6,23.5,96,90,80,29.99,29.64,9,1,9,0.08
2013-12-3,34.9,33.7,31.5,34.0,32.8,30.6,97,96,95,29.84,29.63,7,0,7,0.13
2013-12-4,31.9,28.2,13.5,30.9,26.6,9.4,97,94,83,29.83,29.52,9,1,9,0.00
2013-12-5,13.5,6.1,-1.4,9.4,1.2,-5.1,86,80,71,30.46,29.78,13,2,13,0.00
2013-12-6,6.3,-2.0,-7.2,-1.1,-6.8,-11.4,86,80,69,30.79,30.46,9,1,9,0.00
2013-12-7,2.5,-5.2,-12.4,-6.3,-10.5,-15.9,84,78,63,30.87,30.71,9,1,9,0.00
2013-12-8,13.3,7.0,-3.0,8.5,3.3,-7.0,90,84,78,30.72,30.14,9,0,9,0.00
2013-12-9,10.7,2.1,-3.3,8.1,-2.5,-7.7,89,81,73,30.22,30.00,12,1,12,0.00
2013-12-10,12.8,7.4,2.2,9.3,2.1,-2.7,90,79,68,30.39,29.89,10,1,10,0.00
2013-12-11,6.5,-2.4,-8.5,0.0,-9.2,-13.5,79,72,61,30.69,30.39,9,1,9,0.00
2013-12-12,20.2,12.5,1.0,12.0,6.7,-4.8,87,77,65,30.45,30.24,6,0,6,0.00
2013-12-13,17.1,14.0,11.5,11.6,8.8,7.0,90,79,72,30.38,30.22,11,1,11,0.00
2013-12-14,18.2,10.5,0.5,11.4,5.9,-4.5,88,82,72,30.37,30.18,8,1,8,0.00
2013-12-15,7.3,2.2,-0.7,-2.5,-5.2,-7.0,80,71,57,30.27,30.21,7,1,7,0.00
2013-12-16,21.2,9.9,0.9,19.0,5.1,-7.9,93,80,66,30.25,30.01,14,1,14,0.00
2013-12-17,31.7,22.8,6.8,27.6,17.2,4.3,91,79,68,30.20,29.97,14,2,14,0.00
2013-12-18,37.9,22.9,5.5,28.6,18.0,3.0,94,82,66,30.16,29.72,11,1,11,0.01
2013-12-19,26.3,18.9,16.5,23.5,13.8,10.0,91,80,72,30.15,29.88,12,2,12,0.00
2013-12-20,19.8,17.5,15.2,15.2,13.7,11.9,89,84,79,30.11,29.93,9,1,9,0.00
2013-12-21,23.4,19.8,17.2,17.5,15.2,13.5,86,82,74,30.08,29.93,8,1,8,0.00
2013-12-22,21.1,15.4,4.8,16.7,11.5,1.0,87,84,77,30.33,30.02,8,1,8,0.00
2013-12-23,4.9,-0.0,-6.1,0.9,-5.4,-10.9,84,78,70,30.63,30.33,10,2,10,0.00
2013-12-24,10.9,-0.2,-12.8,5.9,-6.2,-17.8,87,76,55,30.63,30.25,12,1,12,0.00
2013-12-25,30.0,16.8,9.3,23.8,12.6,5.7,91,83,66,30.25,30.13,8,1,12,0.00
2013-12-26,28.0,19.0,7.3,22.5,15.6,4.8,93,87,76,30.25,30.16,4,0,4,0.00
2013-12-27,40.6,26.9,9.7,32.0,23.3,7.5,96,87,70,30.25,29.97,16,1,16,0.21
2013-12-28,49.3,31.2,20.8,34.2,27.0,18.7,97,86,54,30.05,29.69,14,1,14,0.19
2013-12-29,21.4,1.0,-12.5,18.5,-6.7,-18.1,89,70,56,30.43,30.05,17,2,17,0.00
2013-12-30,1.7,-5.3,-14.6,-2.6,-9.7,-19.0,86,81,76,30.43,30.32,5,0,5,0.00
2013-12-31,2.7,-4.8,-10.1,-4.1,-9.9,-14.4,87,78,69,30.55,30.33,4,0,6,0.00
2014-1-1,2.6,-2.3,-7.3,-5.1,-9.4,-14.6,73,71,68,30.63,30.54,7,1,7,0.00
2014-1-2,6.0,-2.8,-11.5,-6.8,-11.0,-17.2,80,68,49,30.64,30.51,4,0,4,0.00